sensor_id;sensor_type;location;lat;lon;timestamp;P1;durP1;ratioP1;P2;durP2;ratioP2
21492;SDS011;10908;50.690;4.400;2024-01-30T00:01:13;9.82;;;4.93;;
21492;SDS011;10908;50.690;4.400;2024-01-30T00:03:39;8.40;;;4.15;;
21492;SDS011;10908;50.690;4.400;2024-01-30T00:06:04;8.02;;;4.10;;
21492;SDS011;10908;50.690;4.400;2024-01-30T00:08:30;8.23;;;3.92;;
21492;SDS011;10908;50.690;4.400;2024-01-30T00:10:55;8.65;;;4.30;;
21492;SDS011;10908;50.690;4.400;2024-01-30T00:13:21;10.90;;;4.22;;
21492;SDS011;10908;50.690;4.400;2024-01-30T00:15:47;7.85;;;4.38;;
21492;SDS011;10908;50.690;4.400;2024-01-30T00:18:13;7.57;;;4.15;;
21492;SDS011;10908;50.690;4.400;2024-01-30T00:20:39;8.77;;;4.57;;
21492;SDS011;10908;50.690;4.400;2024-01-30T00:23:04;9.63;;;4.35;;
21492;SDS011;10908;50.690;4.400;2024-01-30T00:25:30;8.00;;;4.10;;
21492;SDS011;10908;50.690;4.400;2024-01-30T00:27:56;8.15;;;4.50;;
21492;SDS011;10908;50.690;4.400;2024-01-30T00:30:21;8.60;;;4.22;;
21492;SDS011;10908;50.690;4.400;2024-01-30T00:32:47;9.13;;;4.10;;
21492;SDS011;10908;50.690;4.400;2024-01-30T00:35:13;7.85;;;4.38;;
21492;SDS011;10908;50.690;4.400;2024-01-30T00:37:38;8.45;;;4.07;;
21492;SDS011;10908;50.690;4.400;2024-01-30T00:40:04;10.23;;;4.35;;
21492;SDS011;10908;50.690;4.400;2024-01-30T00:42:31;8.95;;;4.90;;
21492;SDS011;10908;50.690;4.400;2024-01-30T00:44:57;8.00;;;4.28;;
21492;SDS011;10908;50.690;4.400;2024-01-30T00:47:23;8.00;;;4.10;;
21492;SDS011;10908;50.690;4.400;2024-01-30T00:49:48;8.15;;;4.28;;
21492;SDS011;10908;50.690;4.400;2024-01-30T00:52:14;8.27;;;3.90;;
21492;SDS011;10908;50.690;4.400;2024-01-30T00:54:40;8.63;;;4.53;;
21492;SDS011;10908;50.690;4.400;2024-01-30T00:57:06;8.88;;;4.43;;
21492;SDS011;10908;50.690;4.400;2024-01-30T00:59:32;9.27;;;4.28;;
21492;SDS011;10908;50.690;4.400;2024-01-30T01:01:58;9.38;;;4.43;;
21492;SDS011;10908;50.690;4.400;2024-01-30T01:04:24;10.20;;;4.50;;
21492;SDS011;10908;50.690;4.400;2024-01-30T01:06:51;10.73;;;4.50;;
21492;SDS011;10908;50.690;4.400;2024-01-30T01:09:17;9.88;;;4.57;;
21492;SDS011;10908;50.690;4.400;2024-01-30T01:11:43;12.52;;;4.10;;
21492;SDS011;10908;50.690;4.400;2024-01-30T01:14:08;10.90;;;4.30;;
21492;SDS011;10908;50.690;4.400;2024-01-30T01:16:34;10.52;;;4.38;;
21492;SDS011;10908;50.690;4.400;2024-01-30T01:19:00;9.25;;;4.40;;
21492;SDS011;10908;50.690;4.400;2024-01-30T01:21:25;7.82;;;4.07;;
21492;SDS011;10908;50.690;4.400;2024-01-30T01:23:51;8.00;;;4.28;;
21492;SDS011;10908;50.690;4.400;2024-01-30T01:26:17;7.35;;;3.95;;
21492;SDS011;10908;50.690;4.400;2024-01-30T01:28:42;10.88;;;4.22;;
21492;SDS011;10908;50.690;4.400;2024-01-30T01:31:08;8.00;;;3.65;;
21492;SDS011;10908;50.690;4.400;2024-01-30T01:33:34;8.48;;;3.80;;
21492;SDS011;10908;50.690;4.400;2024-01-30T01:36:01;9.60;;;3.72;;
21492;SDS011;10908;50.690;4.400;2024-01-30T01:38:28;8.77;;;4.38;;
21492;SDS011;10908;50.690;4.400;2024-01-30T01:40:53;11.13;;;4.22;;
21492;SDS011;10908;50.690;4.400;2024-01-30T01:43:19;8.63;;;4.32;;
21492;SDS011;10908;50.690;4.400;2024-01-30T01:45:45;8.27;;;3.85;;
21492;SDS011;10908;50.690;4.400;2024-01-30T01:48:10;8.00;;;4.10;;
21492;SDS011;10908;50.690;4.400;2024-01-30T01:50:37;8.23;;;4.00;;
21492;SDS011;10908;50.690;4.400;2024-01-30T01:53:05;7.53;;;4.05;;
21492;SDS011;10908;50.690;4.400;2024-01-30T01:55:33;11.63;;;3.95;;
21492;SDS011;10908;50.690;4.400;2024-01-30T01:58:00;8.38;;;4.45;;
21492;SDS011;10908;50.690;4.400;2024-01-30T02:00:27;8.35;;;4.25;;
21492;SDS011;10908;50.690;4.400;2024-01-30T02:02:53;9.13;;;4.15;;
21492;SDS011;10908;50.690;4.400;2024-01-30T02:05:20;9.75;;;4.47;;
21492;SDS011;10908;50.690;4.400;2024-01-30T02:07:46;8.60;;;4.18;;
21492;SDS011;10908;50.690;4.400;2024-01-30T02:10:12;10.20;;;4.45;;
21492;SDS011;10908;50.690;4.400;2024-01-30T02:12:38;8.52;;;4.25;;
21492;SDS011;10908;50.690;4.400;2024-01-30T02:15:04;8.00;;;4.10;;
21492;SDS011;10908;50.690;4.400;2024-01-30T02:17:31;9.68;;;4.30;;
21492;SDS011;10908;50.690;4.400;2024-01-30T02:19:56;9.52;;;4.88;;
21492;SDS011;10908;50.690;4.400;2024-01-30T02:22:22;10.32;;;4.57;;
21492;SDS011;10908;50.690;4.400;2024-01-30T02:24:48;8.73;;;4.35;;
21492;SDS011;10908;50.690;4.400;2024-01-30T02:27:14;8.13;;;4.15;;
21492;SDS011;10908;50.690;4.400;2024-01-30T02:29:40;9.68;;;4.30;;
21492;SDS011;10908;50.690;4.400;2024-01-30T02:32:06;8.48;;;4.38;;
21492;SDS011;10908;50.690;4.400;2024-01-30T02:34:32;10.23;;;4.35;;
21492;SDS011;10908;50.690;4.400;2024-01-30T02:36:58;7.22;;;3.83;;
21492;SDS011;10908;50.690;4.400;2024-01-30T02:39:24;9.05;;;4.40;;
21492;SDS011;10908;50.690;4.400;2024-01-30T02:41:50;7.00;;;3.75;;
21492;SDS011;10908;50.690;4.400;2024-01-30T02:44:15;10.07;;;4.57;;
21492;SDS011;10908;50.690;4.400;2024-01-30T02:46:41;8.65;;;4.10;;
21492;SDS011;10908;50.690;4.400;2024-01-30T02:49:07;9.02;;;4.38;;
21492;SDS011;10908;50.690;4.400;2024-01-30T02:51:32;9.48;;;4.60;;
21492;SDS011;10908;50.690;4.400;2024-01-30T02:53:58;10.20;;;4.78;;
21492;SDS011;10908;50.690;4.400;2024-01-30T02:56:24;7.40;;;4.38;;
21492;SDS011;10908;50.690;4.400;2024-01-30T02:58:50;8.68;;;4.78;;
21492;SDS011;10908;50.690;4.400;2024-01-30T03:01:15;10.27;;;4.60;;
21492;SDS011;10908;50.690;4.400;2024-01-30T03:03:41;10.07;;;4.90;;
21492;SDS011;10908;50.690;4.400;2024-01-30T03:06:08;8.02;;;4.25;;
21492;SDS011;10908;50.690;4.400;2024-01-30T03:08:33;8.25;;;4.50;;
21492;SDS011;10908;50.690;4.400;2024-01-30T03:11:00;8.02;;;4.03;;
21492;SDS011;10908;50.690;4.400;2024-01-30T03:13:25;9.63;;;4.50;;
21492;SDS011;10908;50.690;4.400;2024-01-30T03:15:51;13.05;;;4.63;;
21492;SDS011;10908;50.690;4.400;2024-01-30T03:18:17;9.55;;;4.53;;
21492;SDS011;10908;50.690;4.400;2024-01-30T03:20:43;9.70;;;4.50;;
21492;SDS011;10908;50.690;4.400;2024-01-30T03:23:08;8.82;;;4.43;;
21492;SDS011;10908;50.690;4.400;2024-01-30T03:25:34;11.25;;;4.28;;
21492;SDS011;10908;50.690;4.400;2024-01-30T03:27:59;9.75;;;4.45;;
21492;SDS011;10908;50.690;4.400;2024-01-30T03:30:25;10.05;;;4.55;;
21492;SDS011;10908;50.690;4.400;2024-01-30T03:32:51;10.35;;;4.40;;
21492;SDS011;10908;50.690;4.400;2024-01-30T03:35:16;8.63;;;4.55;;
21492;SDS011;10908;50.690;4.400;2024-01-30T03:37:43;8.50;;;4.53;;
21492;SDS011;10908;50.690;4.400;2024-01-30T03:40:09;8.68;;;4.20;;
21492;SDS011;10908;50.690;4.400;2024-01-30T03:42:35;10.30;;;4.25;;
21492;SDS011;10908;50.690;4.400;2024-01-30T03:45:01;6.95;;;4.28;;
21492;SDS011;10908;50.690;4.400;2024-01-30T03:47:27;10.57;;;4.32;;
21492;SDS011;10908;50.690;4.400;2024-01-30T03:49:53;8.73;;;4.25;;
21492;SDS011;10908;50.690;4.400;2024-01-30T03:52:18;9.23;;;4.10;;
21492;SDS011;10908;50.690;4.400;2024-01-30T03:54:44;7.97;;;4.47;;
21492;SDS011;10908;50.690;4.400;2024-01-30T03:57:09;9.48;;;4.25;;
21492;SDS011;10908;50.690;4.400;2024-01-30T03:59:35;10.18;;;4.28;;
21492;SDS011;10908;50.690;4.400;2024-01-30T04:02:00;8.57;;;4.45;;
21492;SDS011;10908;50.690;4.400;2024-01-30T04:04:26;10.18;;;4.60;;
21492;SDS011;10908;50.690;4.400;2024-01-30T04:06:52;9.02;;;4.35;;
21492;SDS011;10908;50.690;4.400;2024-01-30T04:09:17;9.82;;;4.38;;
21492;SDS011;10908;50.690;4.400;2024-01-30T04:11:43;10.82;;;4.60;;
21492;SDS011;10908;50.690;4.400;2024-01-30T04:14:10;10.20;;;4.75;;
21492;SDS011;10908;50.690;4.400;2024-01-30T04:16:36;9.45;;;4.28;;
21492;SDS011;10908;50.690;4.400;2024-01-30T04:19:01;14.40;;;4.38;;
21492;SDS011;10908;50.690;4.400;2024-01-30T04:21:27;9.18;;;4.88;;
21492;SDS011;10908;50.690;4.400;2024-01-30T04:23:53;9.85;;;4.30;;
21492;SDS011;10908;50.690;4.400;2024-01-30T04:26:18;9.05;;;4.40;;
21492;SDS011;10908;50.690;4.400;2024-01-30T04:28:44;8.02;;;4.18;;
21492;SDS011;10908;50.690;4.400;2024-01-30T04:31:10;10.68;;;4.32;;
21492;SDS011;10908;50.690;4.400;2024-01-30T04:33:36;10.15;;;4.45;;
21492;SDS011;10908;50.690;4.400;2024-01-30T04:36:01;8.77;;;4.30;;
21492;SDS011;10908;50.690;4.400;2024-01-30T04:38:28;8.98;;;4.40;;
21492;SDS011;10908;50.690;4.400;2024-01-30T04:40:53;8.80;;;4.20;;
21492;SDS011;10908;50.690;4.400;2024-01-30T04:43:19;9.73;;;4.47;;
21492;SDS011;10908;50.690;4.400;2024-01-30T04:45:45;10.50;;;4.50;;
21492;SDS011;10908;50.690;4.400;2024-01-30T04:48:11;9.23;;;4.55;;
21492;SDS011;10908;50.690;4.400;2024-01-30T04:50:36;9.20;;;4.32;;
21492;SDS011;10908;50.690;4.400;2024-01-30T04:53:02;8.90;;;4.55;;
21492;SDS011;10908;50.690;4.400;2024-01-30T04:55:28;9.80;;;4.60;;
21492;SDS011;10908;50.690;4.400;2024-01-30T04:57:53;8.85;;;4.43;;
21492;SDS011;10908;50.690;4.400;2024-01-30T05:00:19;9.65;;;4.38;;
21492;SDS011;10908;50.690;4.400;2024-01-30T05:02:44;7.82;;;4.03;;
21492;SDS011;10908;50.690;4.400;2024-01-30T05:05:10;10.18;;;4.90;;
21492;SDS011;10908;50.690;4.400;2024-01-30T05:07:36;7.80;;;4.55;;
21492;SDS011;10908;50.690;4.400;2024-01-30T05:10:02;8.13;;;4.43;;
21492;SDS011;10908;50.690;4.400;2024-01-30T05:12:28;10.32;;;4.68;;
21492;SDS011;10908;50.690;4.400;2024-01-30T05:14:54;9.55;;;4.70;;
21492;SDS011;10908;50.690;4.400;2024-01-30T05:17:19;9.73;;;5.10;;
21492;SDS011;10908;50.690;4.400;2024-01-30T05:19:45;11.05;;;4.78;;
21492;SDS011;10908;50.690;4.400;2024-01-30T05:22:11;8.15;;;4.88;;
21492;SDS011;10908;50.690;4.400;2024-01-30T05:24:40;9.90;;;4.68;;
21492;SDS011;10908;50.690;4.400;2024-01-30T05:27:09;8.50;;;4.60;;
21492;SDS011;10908;50.690;4.400;2024-01-30T05:29:35;10.05;;;4.65;;
21492;SDS011;10908;50.690;4.400;2024-01-30T05:32:00;9.20;;;4.82;;
21492;SDS011;10908;50.690;4.400;2024-01-30T05:34:26;11.57;;;4.82;;
21492;SDS011;10908;50.690;4.400;2024-01-30T05:36:52;10.55;;;4.82;;
21492;SDS011;10908;50.690;4.400;2024-01-30T05:39:17;10.23;;;5.10;;
21492;SDS011;10908;50.690;4.400;2024-01-30T05:41:43;12.88;;;5.13;;
21492;SDS011;10908;50.690;4.400;2024-01-30T05:44:09;9.02;;;4.40;;
21492;SDS011;10908;50.690;4.400;2024-01-30T05:46:35;9.60;;;4.70;;
21492;SDS011;10908;50.690;4.400;2024-01-30T05:49:01;10.30;;;4.68;;
21492;SDS011;10908;50.690;4.400;2024-01-30T05:51:26;8.52;;;4.80;;
21492;SDS011;10908;50.690;4.400;2024-01-30T05:53:53;9.52;;;4.95;;
21492;SDS011;10908;50.690;4.400;2024-01-30T05:56:19;12.25;;;4.80;;
21492;SDS011;10908;50.690;4.400;2024-01-30T05:58:44;9.77;;;5.07;;
21492;SDS011;10908;50.690;4.400;2024-01-30T06:01:10;10.02;;;4.90;;
21492;SDS011;10908;50.690;4.400;2024-01-30T06:03:36;8.90;;;4.78;;
21492;SDS011;10908;50.690;4.400;2024-01-30T06:06:02;8.55;;;5.05;;
21492;SDS011;10908;50.690;4.400;2024-01-30T06:08:27;10.70;;;4.72;;
21492;SDS011;10908;50.690;4.400;2024-01-30T06:10:53;10.52;;;4.82;;
21492;SDS011;10908;50.690;4.400;2024-01-30T06:13:19;11.18;;;5.63;;
21492;SDS011;10908;50.690;4.400;2024-01-30T06:15:45;11.88;;;5.15;;
21492;SDS011;10908;50.690;4.400;2024-01-30T06:18:11;8.82;;;4.85;;
21492;SDS011;10908;50.690;4.400;2024-01-30T06:20:36;12.60;;;5.20;;
21492;SDS011;10908;50.690;4.400;2024-01-30T06:23:02;9.82;;;4.93;;
21492;SDS011;10908;50.690;4.400;2024-01-30T06:25:28;11.07;;;5.00;;
21492;SDS011;10908;50.690;4.400;2024-01-30T06:27:53;10.50;;;4.85;;
21492;SDS011;10908;50.690;4.400;2024-01-30T06:30:19;10.50;;;5.03;;
21492;SDS011;10908;50.690;4.400;2024-01-30T06:32:45;10.95;;;5.22;;
21492;SDS011;10908;50.690;4.400;2024-01-30T06:35:10;10.48;;;5.38;;
21492;SDS011;10908;50.690;4.400;2024-01-30T06:37:36;12.57;;;5.50;;
21492;SDS011;10908;50.690;4.400;2024-01-30T06:40:02;8.88;;;4.88;;
21492;SDS011;10908;50.690;4.400;2024-01-30T06:42:30;10.00;;;4.95;;
21492;SDS011;10908;50.690;4.400;2024-01-30T06:44:56;9.60;;;4.93;;
21492;SDS011;10908;50.690;4.400;2024-01-30T06:47:21;9.70;;;4.95;;
21492;SDS011;10908;50.690;4.400;2024-01-30T06:49:47;10.40;;;5.25;;
21492;SDS011;10908;50.690;4.400;2024-01-30T06:52:12;11.52;;;5.50;;
21492;SDS011;10908;50.690;4.400;2024-01-30T06:54:39;9.40;;;4.95;;
21492;SDS011;10908;50.690;4.400;2024-01-30T06:57:04;11.82;;;4.97;;
21492;SDS011;10908;50.690;4.400;2024-01-30T06:59:33;9.35;;;4.95;;
21492;SDS011;10908;50.690;4.400;2024-01-30T07:01:59;10.23;;;5.35;;
21492;SDS011;10908;50.690;4.400;2024-01-30T07:04:25;11.07;;;5.40;;
21492;SDS011;10908;50.690;4.400;2024-01-30T07:06:51;11.07;;;5.13;;
21492;SDS011;10908;50.690;4.400;2024-01-30T07:09:18;12.85;;;5.38;;
21492;SDS011;10908;50.690;4.400;2024-01-30T07:11:43;11.05;;;5.20;;
21492;SDS011;10908;50.690;4.400;2024-01-30T07:14:09;12.10;;;5.22;;
21492;SDS011;10908;50.690;4.400;2024-01-30T07:16:35;12.35;;;5.38;;
21492;SDS011;10908;50.690;4.400;2024-01-30T07:19:01;11.23;;;5.70;;
21492;SDS011;10908;50.690;4.400;2024-01-30T07:21:27;11.02;;;5.28;;
21492;SDS011;10908;50.690;4.400;2024-01-30T07:23:56;11.40;;;5.43;;
21492;SDS011;10908;50.690;4.400;2024-01-30T07:26:22;13.10;;;5.72;;
21492;SDS011;10908;50.690;4.400;2024-01-30T07:28:49;11.52;;;5.43;;
21492;SDS011;10908;50.690;4.400;2024-01-30T07:31:15;14.68;;;5.35;;
21492;SDS011;10908;50.690;4.400;2024-01-30T07:33:40;11.05;;;5.30;;
21492;SDS011;10908;50.690;4.400;2024-01-30T07:36:06;10.25;;;5.13;;
21492;SDS011;10908;50.690;4.400;2024-01-30T07:38:32;11.45;;;5.68;;
21492;SDS011;10908;50.690;4.400;2024-01-30T07:40:57;10.15;;;5.07;;
21492;SDS011;10908;50.690;4.400;2024-01-30T07:43:23;11.25;;;5.22;;
21492;SDS011;10908;50.690;4.400;2024-01-30T07:45:49;12.38;;;5.45;;
21492;SDS011;10908;50.690;4.400;2024-01-30T07:48:14;10.15;;;5.28;;
21492;SDS011;10908;50.690;4.400;2024-01-30T07:50:40;12.88;;;5.47;;
21492;SDS011;10908;50.690;4.400;2024-01-30T07:53:06;12.63;;;5.57;;
21492;SDS011;10908;50.690;4.400;2024-01-30T07:55:32;11.38;;;5.18;;
21492;SDS011;10908;50.690;4.400;2024-01-30T07:57:57;12.57;;;5.63;;
21492;SDS011;10908;50.690;4.400;2024-01-30T08:00:24;9.57;;;5.00;;
21492;SDS011;10908;50.690;4.400;2024-01-30T08:02:49;9.80;;;5.05;;
21492;SDS011;10908;50.690;4.400;2024-01-30T08:05:15;10.85;;;5.15;;
21492;SDS011;10908;50.690;4.400;2024-01-30T08:07:41;10.40;;;5.28;;
21492;SDS011;10908;50.690;4.400;2024-01-30T08:10:11;15.43;;;5.53;;
21492;SDS011;10908;50.690;4.400;2024-01-30T08:12:38;11.20;;;5.78;;
21492;SDS011;10908;50.690;4.400;2024-01-30T08:15:04;12.35;;;5.63;;
21492;SDS011;10908;50.690;4.400;2024-01-30T08:17:30;12.27;;;5.38;;
21492;SDS011;10908;50.690;4.400;2024-01-30T08:19:55;12.48;;;5.70;;
21492;SDS011;10908;50.690;4.400;2024-01-30T08:22:21;13.48;;;5.63;;
21492;SDS011;10908;50.690;4.400;2024-01-30T08:24:47;12.50;;;5.22;;
21492;SDS011;10908;50.690;4.400;2024-01-30T08:27:12;14.23;;;5.68;;
21492;SDS011;10908;50.690;4.400;2024-01-30T08:29:38;12.98;;;5.53;;
21492;SDS011;10908;50.690;4.400;2024-01-30T08:32:05;12.82;;;5.55;;
21492;SDS011;10908;50.690;4.400;2024-01-30T08:34:31;13.43;;;6.18;;
21492;SDS011;10908;50.690;4.400;2024-01-30T08:36:57;15.57;;;5.78;;
21492;SDS011;10908;50.690;4.400;2024-01-30T08:39:22;14.20;;;5.53;;
21492;SDS011;10908;50.690;4.400;2024-01-30T08:41:48;11.60;;;5.57;;
21492;SDS011;10908;50.690;4.400;2024-01-30T08:44:14;14.90;;;6.13;;
21492;SDS011;10908;50.690;4.400;2024-01-30T08:46:39;13.50;;;5.80;;
21492;SDS011;10908;50.690;4.400;2024-01-30T08:49:05;12.45;;;5.68;;
21492;SDS011;10908;50.690;4.400;2024-01-30T08:51:31;15.02;;;5.93;;
21492;SDS011;10908;50.690;4.400;2024-01-30T08:53:56;14.20;;;5.80;;
21492;SDS011;10908;50.690;4.400;2024-01-30T08:56:22;13.45;;;5.90;;
21492;SDS011;10908;50.690;4.400;2024-01-30T08:58:47;13.95;;;6.20;;
21492;SDS011;10908;50.690;4.400;2024-01-30T09:01:13;15.18;;;5.72;;
21492;SDS011;10908;50.690;4.400;2024-01-30T09:03:39;13.98;;;5.55;;
21492;SDS011;10908;50.690;4.400;2024-01-30T09:06:12;14.13;;;6.07;;
21492;SDS011;10908;50.690;4.400;2024-01-30T09:08:38;13.95;;;5.68;;
21492;SDS011;10908;50.690;4.400;2024-01-30T09:11:08;11.18;;;5.28;;
21492;SDS011;10908;50.690;4.400;2024-01-30T09:13:35;17.27;;;6.05;;
21492;SDS011;10908;50.690;4.400;2024-01-30T09:16:00;13.05;;;5.78;;
21492;SDS011;10908;50.690;4.400;2024-01-30T09:18:26;15.27;;;6.18;;
21492;SDS011;10908;50.690;4.400;2024-01-30T09:20:51;20.52;;;6.63;;
21492;SDS011;10908;50.690;4.400;2024-01-30T09:23:17;15.93;;;6.57;;
21492;SDS011;10908;50.690;4.400;2024-01-30T09:25:44;13.93;;;6.32;;
21492;SDS011;10908;50.690;4.400;2024-01-30T09:28:10;17.88;;;6.55;;
21492;SDS011;10908;50.690;4.400;2024-01-30T09:30:36;15.07;;;6.63;;
21492;SDS011;10908;50.690;4.400;2024-01-30T09:33:02;17.73;;;6.85;;
21492;SDS011;10908;50.690;4.400;2024-01-30T09:35:27;14.23;;;6.28;;
21492;SDS011;10908;50.690;4.400;2024-01-30T09:37:54;16.65;;;7.13;;
21492;SDS011;10908;50.690;4.400;2024-01-30T09:40:19;14.02;;;7.00;;
21492;SDS011;10908;50.690;4.400;2024-01-30T09:42:48;15.50;;;6.25;;
21492;SDS011;10908;50.690;4.400;2024-01-30T09:45:15;16.92;;;7.13;;
21492;SDS011;10908;50.690;4.400;2024-01-30T09:47:44;15.50;;;6.65;;
21492;SDS011;10908;50.690;4.400;2024-01-30T09:50:12;12.55;;;6.40;;
21492;SDS011;10908;50.690;4.400;2024-01-30T09:52:39;17.88;;;6.22;;
21492;SDS011;10908;50.690;4.400;2024-01-30T09:55:05;16.75;;;6.90;;
21492;SDS011;10908;50.690;4.400;2024-01-30T09:57:32;12.32;;;6.30;;
21492;SDS011;10908;50.690;4.400;2024-01-30T09:59:58;14.23;;;6.78;;
21492;SDS011;10908;50.690;4.400;2024-01-30T10:02:23;18.98;;;7.00;;
21492;SDS011;10908;50.690;4.400;2024-01-30T10:04:49;16.80;;;7.20;;
21492;SDS011;10908;50.690;4.400;2024-01-30T10:07:17;20.70;;;7.00;;
21492;SDS011;10908;50.690;4.400;2024-01-30T10:09:43;17.02;;;7.60;;
21492;SDS011;10908;50.690;4.400;2024-01-30T10:12:09;18.45;;;8.00;;
21492;SDS011;10908;50.690;4.400;2024-01-30T10:14:38;16.10;;;8.25;;
21492;SDS011;10908;50.690;4.400;2024-01-30T10:17:04;15.57;;;7.57;;
21492;SDS011;10908;50.690;4.400;2024-01-30T10:19:30;17.95;;;8.25;;
21492;SDS011;10908;50.690;4.400;2024-01-30T10:21:56;17.60;;;7.78;;
21492;SDS011;10908;50.690;4.400;2024-01-30T10:24:28;16.60;;;7.55;;
21492;SDS011;10908;50.690;4.400;2024-01-30T10:26:56;20.80;;;7.57;;
21492;SDS011;10908;50.690;4.400;2024-01-30T10:29:23;16.85;;;8.23;;
21492;SDS011;10908;50.690;4.400;2024-01-30T10:31:59;18.52;;;8.40;;
21492;SDS011;10908;50.690;4.400;2024-01-30T10:34:25;14.57;;;7.60;;
21492;SDS011;10908;50.690;4.400;2024-01-30T10:36:55;21.23;;;8.18;;
21492;SDS011;10908;50.690;4.400;2024-01-30T10:39:43;18.00;;;8.07;;
21492;SDS011;10908;50.690;4.400;2024-01-30T10:42:13;19.92;;;8.13;;
21492;SDS011;10908;50.690;4.400;2024-01-30T10:45:06;21.83;;;8.75;;
21492;SDS011;10908;50.690;4.400;2024-01-30T10:47:42;18.60;;;8.93;;
21492;SDS011;10908;50.690;4.400;2024-01-30T10:50:10;18.02;;;8.80;;
21492;SDS011;10908;50.690;4.400;2024-01-30T10:52:36;20.58;;;10.00;;
21492;SDS011;10908;50.690;4.400;2024-01-30T10:55:03;22.50;;;9.55;;
21492;SDS011;10908;50.690;4.400;2024-01-30T10:57:33;22.33;;;8.25;;
21492;SDS011;10908;50.690;4.400;2024-01-30T11:00:00;19.20;;;6.40;;
21492;SDS011;10908;50.690;4.400;2024-01-30T11:02:35;15.90;;;6.28;;
21492;SDS011;10908;50.690;4.400;2024-01-30T11:05:04;11.43;;;3.97;;
21492;SDS011;10908;50.690;4.400;2024-01-30T11:07:30;8.50;;;3.40;;
21492;SDS011;10908;50.690;4.400;2024-01-30T11:12:27;9.68;;;2.83;;
21492;SDS011;10908;50.690;4.400;2024-01-30T11:15:06;7.38;;;2.10;;
21492;SDS011;10908;50.690;4.400;2024-01-30T11:20:15;11.10;;;2.50;;
21492;SDS011;10908;50.690;4.400;2024-01-30T11:22:45;8.85;;;2.20;;
21492;SDS011;10908;50.690;4.400;2024-01-30T11:25:15;6.95;;;1.92;;
21492;SDS011;10908;50.690;4.400;2024-01-30T11:27:43;6.10;;;1.88;;
21492;SDS011;10908;50.690;4.400;2024-01-30T11:30:09;9.15;;;1.80;;
21492;SDS011;10908;50.690;4.400;2024-01-30T11:32:35;9.48;;;2.00;;
21492;SDS011;10908;50.690;4.400;2024-01-30T11:35:05;5.95;;;1.40;;
21492;SDS011;10908;50.690;4.400;2024-01-30T11:37:31;4.53;;;1.20;;
21492;SDS011;10908;50.690;4.400;2024-01-30T11:40:01;6.63;;;1.30;;
21492;SDS011;10908;50.690;4.400;2024-01-30T11:42:29;4.30;;;0.90;;
21492;SDS011;10908;50.690;4.400;2024-01-30T11:44:55;6.63;;;1.10;;
21492;SDS011;10908;50.690;4.400;2024-01-30T11:47:22;6.80;;;1.02;;
21492;SDS011;10908;50.690;4.400;2024-01-30T11:49:48;3.17;;;0.90;;
21492;SDS011;10908;50.690;4.400;2024-01-30T11:52:13;5.97;;;0.90;;
21492;SDS011;10908;50.690;4.400;2024-01-30T11:54:39;5.72;;;0.88;;
21492;SDS011;10908;50.690;4.400;2024-01-30T11:57:05;5.00;;;0.93;;
21492;SDS011;10908;50.690;4.400;2024-01-30T11:59:31;3.03;;;0.80;;
21492;SDS011;10908;50.690;4.400;2024-01-30T12:01:56;6.68;;;1.00;;
21492;SDS011;10908;50.690;4.400;2024-01-30T12:04:22;2.80;;;0.82;;
21492;SDS011;10908;50.690;4.400;2024-01-30T12:06:51;3.67;;;0.57;;
21492;SDS011;10908;50.690;4.400;2024-01-30T12:09:17;4.18;;;0.73;;
21492;SDS011;10908;50.690;4.400;2024-01-30T12:11:43;4.85;;;0.65;;
21492;SDS011;10908;50.690;4.400;2024-01-30T12:14:12;6.68;;;0.60;;
21492;SDS011;10908;50.690;4.400;2024-01-30T12:16:38;2.65;;;0.50;;
21492;SDS011;10908;50.690;4.400;2024-01-30T12:19:04;2.97;;;0.60;;
21492;SDS011;10908;50.690;4.400;2024-01-30T12:21:29;3.85;;;0.68;;
21492;SDS011;10908;50.690;4.400;2024-01-30T12:23:56;3.10;;;0.55;;
21492;SDS011;10908;50.690;4.400;2024-01-30T12:26:23;3.92;;;0.75;;
21492;SDS011;10908;50.690;4.400;2024-01-30T12:28:51;5.65;;;0.70;;
21492;SDS011;10908;50.690;4.400;2024-01-30T12:31:26;3.10;;;0.50;;
21492;SDS011;10908;50.690;4.400;2024-01-30T12:33:53;3.63;;;0.70;;
21492;SDS011;10908;50.690;4.400;2024-01-30T12:36:20;2.92;;;0.45;;
21492;SDS011;10908;50.690;4.400;2024-01-30T12:38:47;3.25;;;0.65;;
21492;SDS011;10908;50.690;4.400;2024-01-30T12:41:12;2.67;;;0.52;;
21492;SDS011;10908;50.690;4.400;2024-01-30T12:43:38;2.22;;;0.40;;
21492;SDS011;10908;50.690;4.400;2024-01-30T12:46:04;3.22;;;0.50;;
21492;SDS011;10908;50.690;4.400;2024-01-30T12:48:30;3.40;;;0.40;;
21492;SDS011;10908;50.690;4.400;2024-01-30T12:50:56;2.33;;;0.30;;
21492;SDS011;10908;50.690;4.400;2024-01-30T12:53:22;2.10;;;0.55;;
21492;SDS011;10908;50.690;4.400;2024-01-30T12:55:48;2.63;;;0.38;;
21492;SDS011;10908;50.690;4.400;2024-01-30T12:58:15;2.97;;;0.35;;
21492;SDS011;10908;50.690;4.400;2024-01-30T13:00:41;3.05;;;0.50;;
21492;SDS011;10908;50.690;4.400;2024-01-30T13:03:10;1.65;;;0.35;;
21492;SDS011;10908;50.690;4.400;2024-01-30T13:05:36;3.17;;;0.40;;
21492;SDS011;10908;50.690;4.400;2024-01-30T13:08:02;3.65;;;0.68;;
21492;SDS011;10908;50.690;4.400;2024-01-30T13:10:28;1.45;;;0.30;;
21492;SDS011;10908;50.690;4.400;2024-01-30T13:12:54;3.50;;;0.47;;
21492;SDS011;10908;50.690;4.400;2024-01-30T13:15:19;4.57;;;0.52;;
21492;SDS011;10908;50.690;4.400;2024-01-30T13:17:45;4.72;;;0.50;;
21492;SDS011;10908;50.690;4.400;2024-01-30T13:20:13;2.95;;;0.50;;
21492;SDS011;10908;50.690;4.400;2024-01-30T13:22:44;2.60;;;0.35;;
21492;SDS011;10908;50.690;4.400;2024-01-30T13:25:10;4.95;;;0.40;;
21492;SDS011;10908;50.690;4.400;2024-01-30T13:27:36;3.65;;;0.52;;
21492;SDS011;10908;50.690;4.400;2024-01-30T13:30:02;2.60;;;0.40;;
21492;SDS011;10908;50.690;4.400;2024-01-30T13:32:29;3.80;;;0.63;;
21492;SDS011;10908;50.690;4.400;2024-01-30T13:34:54;4.32;;;0.50;;
21492;SDS011;10908;50.690;4.400;2024-01-30T13:37:20;3.28;;;0.50;;
21492;SDS011;10908;50.690;4.400;2024-01-30T13:39:46;4.03;;;0.60;;
21492;SDS011;10908;50.690;4.400;2024-01-30T13:42:12;3.40;;;0.52;;
21492;SDS011;10908;50.690;4.400;2024-01-30T13:44:38;6.10;;;0.80;;
21492;SDS011;10908;50.690;4.400;2024-01-30T13:47:03;8.57;;;0.80;;
21492;SDS011;10908;50.690;4.400;2024-01-30T13:49:29;6.15;;;1.00;;
21492;SDS011;10908;50.690;4.400;2024-01-30T13:51:54;4.78;;;0.80;;
21492;SDS011;10908;50.690;4.400;2024-01-30T13:54:20;5.53;;;0.50;;
21492;SDS011;10908;50.690;4.400;2024-01-30T13:56:46;5.32;;;0.75;;
21492;SDS011;10908;50.690;4.400;2024-01-30T13:59:12;5.68;;;0.60;;
21492;SDS011;10908;50.690;4.400;2024-01-30T14:01:37;3.28;;;0.70;;
21492;SDS011;10908;50.690;4.400;2024-01-30T14:04:03;3.67;;;0.57;;
21492;SDS011;10908;50.690;4.400;2024-01-30T14:06:29;4.38;;;0.50;;
21492;SDS011;10908;50.690;4.400;2024-01-30T14:08:54;4.22;;;0.60;;
21492;SDS011;10908;50.690;4.400;2024-01-30T14:11:20;6.00;;;0.77;;
21492;SDS011;10908;50.690;4.400;2024-01-30T14:13:46;3.05;;;0.40;;
21492;SDS011;10908;50.690;4.400;2024-01-30T14:16:11;4.25;;;0.55;;
21492;SDS011;10908;50.690;4.400;2024-01-30T14:18:37;2.67;;;0.55;;
21492;SDS011;10908;50.690;4.400;2024-01-30T14:21:03;5.70;;;0.60;;
21492;SDS011;10908;50.690;4.400;2024-01-30T14:23:28;4.88;;;0.80;;
21492;SDS011;10908;50.690;4.400;2024-01-30T14:25:54;4.93;;;0.52;;
21492;SDS011;10908;50.690;4.400;2024-01-30T14:28:20;4.57;;;0.60;;
21492;SDS011;10908;50.690;4.400;2024-01-30T14:30:46;5.93;;;0.80;;
21492;SDS011;10908;50.690;4.400;2024-01-30T14:33:12;6.47;;;1.00;;
21492;SDS011;10908;50.690;4.400;2024-01-30T14:35:37;3.80;;;0.55;;
21492;SDS011;10908;50.690;4.400;2024-01-30T14:38:03;7.28;;;1.00;;
21492;SDS011;10908;50.690;4.400;2024-01-30T14:40:32;6.53;;;0.85;;
21492;SDS011;10908;50.690;4.400;2024-01-30T14:42:58;5.47;;;0.90;;